Longreach, Australia
Current Conditions -  °F | °C
As of 8:00 PM on Monday 22 Dec 2014 (Local Time) from YLRE Reporting Station
Clear Clear  
Wind Chill: 91°   Ceiling: Unl
Heat Index: 91°   Visibility: 6mi
Dew Point: 48°   Wind: 12mph
Humidity: 23%   Direction: 60°ENE
Pressure: 29.83"   Gusts: NA
Location:  23.44°S, 144.25°E
Report Text: YLRE 221000Z AUTO 06010KT 9999 // NCD 33/09 Q1010
Loading
Personal Weather Stations






























Interactive Weather Map New forecast layout! Learn more

10-Day Weather Forecast

Advertisements
Track Severe Weather on mobile